Address 0x358858d8ae6f35c92360e3f4b45d059204ce9cc6 2

 
Txn Hash
Block
From
To
Value [Txn Fee]
0xdb77b00fb6d971dc3d08e03424786683585547aced3c59398abd046c55be892f97153622021-08-03 14:19:439 hrs 6 mins ago0x358858d8ae6f35c92360e3f4b45d059204ce9cc6OUT 0x39bea96e13453ed52a734b6aceed4c41f57b22710 BNB0.000704015
0xfb44babaea7456dc4a33dbfa4f766015960d3427a56a0e9beb79fa4a95d4caf497153422021-08-03 14:18:379 hrs 7 mins ago0x358858d8ae6f35c92360e3f4b45d059204ce9cc6OUT 0x39bea96e13453ed52a734b6aceed4c41f57b22710 BNB0.000704015
0x895f95c45d015ccee053f82ceafbfb48ca2aa429870df938bafc4af19e58c87597152992021-08-03 14:16:179 hrs 9 mins ago0x358858d8ae6f35c92360e3f4b45d059204ce9cc6OUT 0x39bea96e13453ed52a734b6aceed4c41f57b22710 BNB0.00069834
0x1e06beb81512f2e9678374c0061f41f47c2264b2776df8f88b36fb732064862f97152372021-08-03 14:13:089 hrs 13 mins ago0x358858d8ae6f35c92360e3f4b45d059204ce9cc6OUT 0x39bea96e13453ed52a734b6aceed4c41f57b22710 BNB0.0007022
0xd250e80c78a3cc4758df48e73b142aeb6a15a71acf89db077e7ba884dafd812697152082021-08-03 14:11:419 hrs 14 mins ago0x358858d8ae6f35c92360e3f4b45d059204ce9cc6OUT 0x39bea96e13453ed52a734b6aceed4c41f57b22710 BNB0.00070341
0xe5cf7ff54a5a2f4d1365fdf6a24171afb1b03a390dfe672156af8925e78bdcee97151762021-08-03 14:09:559 hrs 16 mins ago0x358858d8ae6f35c92360e3f4b45d059204ce9cc6OUT 0x39bea96e13453ed52a734b6aceed4c41f57b22710 BNB0.000698945
0x1899849dfce934fd69c4a4b31c204aa9a58d271fe3f2337f178e3399af8779bd97151542021-08-03 14:08:439 hrs 17 mins ago0x358858d8ae6f35c92360e3f4b45d059204ce9cc6OUT 0x39bea96e13453ed52a734b6aceed4c41f57b22710 BNB0.000660895
0x77960ccef1cc11b062e485e6b8bccd4110c94ae0c99976d8ab59712f9887d43a97000212021-08-03 0:25:1823 hrs ago0x358858d8ae6f35c92360e3f4b45d059204ce9cc6OUT 0x39bea96e13453ed52a734b6aceed4c41f57b22710 BNB0.00082107
0x1719a280a30700a4b34afde504da6a927a542da4f44a46080c0afefcaa9a3f0297000142021-08-03 0:24:5623 hrs 1 min ago0x358858d8ae6f35c92360e3f4b45d059204ce9cc6OUT 0x39bea96e13453ed52a734b6aceed4c41f57b22710 BNB0.00082372
0x9cf27440873c93aa352fb79c1541c1c208567a73ec6b0007307da40b96e58f9a97000092021-08-03 0:24:4023 hrs 1 min ago0x358858d8ae6f35c92360e3f4b45d059204ce9cc6OUT 0x39bea96e13453ed52a734b6aceed4c41f57b22710 BNB0.00081975
0xd7cb9f200ea0bec157524927788a056cb74da62a16190948fb25816c1ababdf097000012021-08-03 0:24:1523 hrs 1 min ago0x358858d8ae6f35c92360e3f4b45d059204ce9cc6OUT 0x39bea96e13453ed52a734b6aceed4c41f57b22710 BNB0.000824325
0x9d775910449352544330dbc04e567d91e8f1729b0c214a524ca07a673f29179196853532021-08-02 11:48:281 day 11 hrs ago0x358858d8ae6f35c92360e3f4b45d059204ce9cc6OUT 0x39bea96e13453ed52a734b6aceed4c41f57b22710 BNB0.000824275
0x314d7df210e4fc662072be36ffec282214097550e4e3681f2568be58bcd15fa696853422021-08-02 11:47:551 day 11 hrs ago0x358858d8ae6f35c92360e3f4b45d059204ce9cc6OUT 0x39bea96e13453ed52a734b6aceed4c41f57b22710 BNB0.00082127
0xc8bafb04fdf471e1ce2e85067cc305e666ee3bfb91ae7b65306be02f94a2575396853302021-08-02 11:47:191 day 11 hrs ago0x358858d8ae6f35c92360e3f4b45d059204ce9cc6OUT 0x39bea96e13453ed52a734b6aceed4c41f57b22710 BNB0.000824585
0xe93b460b2827261cb296c2757752cba1da0c07041c8dfb0092cb3e74d92b15e796853202021-08-02 11:46:491 day 11 hrs ago0x358858d8ae6f35c92360e3f4b45d059204ce9cc6OUT 0x39bea96e13453ed52a734b6aceed4c41f57b22710 BNB0.000824325
0x605006925550d35617fd939d1f9875a47932a921b069c2617a13bd544442745796853082021-08-02 11:46:131 day 11 hrs ago0x358858d8ae6f35c92360e3f4b45d059204ce9cc6OUT 0x39bea96e13453ed52a734b6aceed4c41f57b22710 BNB0.00082488
0x6be7e3f9b02447bcd0d321daf6bf87db04dc387dcec4994a22d815607b249ca296852952021-08-02 11:45:341 day 11 hrs ago0x358858d8ae6f35c92360e3f4b45d059204ce9cc6OUT 0x39bea96e13453ed52a734b6aceed4c41f57b22710 BNB0.000819565
0xfa1bb9141409ca82aa5ee40d3de4de0c3f867b28786d1c12aa1db7d595fdce0396852762021-08-02 11:44:351 day 11 hrs ago0x358858d8ae6f35c92360e3f4b45d059204ce9cc6OUT 0x39bea96e13453ed52a734b6aceed4c41f57b22710 BNB0.00090128
0x6215bc900392cc20eb7c3dba3ed70ae8d0b3495631e253ae674576851d39403596626172021-08-01 16:16:522 days 7 hrs ago0x358858d8ae6f35c92360e3f4b45d059204ce9cc6OUT 0x39bea96e13453ed52a734b6aceed4c41f57b22710 BNB0.000899585
0x7c3013bd3c9201a9dbff978663b6a9c54f5dfa23b8056ecb58aba7037c1d081796625902021-08-01 16:15:272 days 7 hrs ago0x358858d8ae6f35c92360e3f4b45d059204ce9cc6OUT 0x39bea96e13453ed52a734b6aceed4c41f57b22710 BNB0.000900845
0xd82c86a310fb5afad975977ceeb569d17c681cfcc69bc7ea906d53bfc2efa93596625732021-08-01 16:14:312 days 7 hrs ago0x358858d8ae6f35c92360e3f4b45d059204ce9cc6OUT 0x39bea96e13453ed52a734b6aceed4c41f57b22710 BNB0.00082102
0xd352214cddf79ced775a539642ef41d937aed4ab5d107f17047d35ab101f796896625622021-08-01 16:13:542 days 7 hrs ago0x358858d8ae6f35c92360e3f4b45d059204ce9cc6OUT 0x39bea96e13453ed52a734b6aceed4c41f57b22710 BNB0.00089511
0xc05b9211758712ec8be1abde1dae4c061687b5365ccdcee9bc8e31673fd245b296625522021-08-01 16:13:182 days 7 hrs ago0x358858d8ae6f35c92360e3f4b45d059204ce9cc6OUT 0x39bea96e13453ed52a734b6aceed4c41f57b22710 BNB0.00077983
0x1ba5726b5236600c8aa3d4fb2b1f5aa6f51e17593c0d9bf89136065aa2819b7096328042021-07-31 14:27:523 days 8 hrs ago0x358858d8ae6f35c92360e3f4b45d059204ce9cc6OUT 0x39bea96e13453ed52a734b6aceed4c41f57b22710 BNB0.00113973
0x6f5fe226fa237451001c3f2c91e625f7fd7e6cce76f85821b0e657b6551ca34296327862021-07-31 14:26:493 days 8 hrs ago0x358858d8ae6f35c92360e3f4b45d059204ce9cc6OUT 0x39bea96e13453ed52a734b6aceed4c41f57b22710 BNB0.000824235
[ Download CSV Export 
Latest 1 internal transaction
Parent Txn Hash Block From To Value
0x2cbe44fce1acf9eb89e66d03b855dc4c935d44a740de3b0e0db751f0b4922a1393909782021-07-22 21:59:5912 days 1 hr ago 0xcf0febd3f17cef5b47b0cd257acf6025c5bff3b70x358858d8ae6f35c92360e3f4b45d059204ce9cc60.206665419002546697 BNB
[ Download CSV Export 
Loading

Contract Name:
0 BNB

Compiler Version
0

Optimization Enabled:
0 BNB

Other Settings:
-NA-
Block Transaction Gas Used Reward
Age Block Fee Address BC Fee Address Voting Power Jailed Incoming
Block Uncle Number Difficulty Gas Used Reward
Loading
Loading
Make sure to use the "Vote Down" button for any spammy posts, and the "Vote Up" for interesting conversations.